createdAt,value
2019-02-10T00:00:14.950Z,6.89
2019-02-10T00:02:40.826Z,6.92
2019-02-10T00:05:07.001Z,6.98
2019-02-10T00:07:33.290Z,6.94
2019-02-10T00:09:59.106Z,6.91
2019-02-10T00:12:24.946Z,6.90
2019-02-10T00:14:50.767Z,6.87
2019-02-10T00:17:16.789Z,6.83
2019-02-10T00:19:42.624Z,6.82
2019-02-10T00:22:11.372Z,6.81
2019-02-10T00:24:37.292Z,6.81
2019-02-10T00:27:07.096Z,6.77
2019-02-10T00:29:33.257Z,6.74
2019-02-10T00:32:02.725Z,6.68
2019-02-10T00:34:28.825Z,6.69
2019-02-10T00:36:58.013Z,6.66
2019-02-10T00:39:24.119Z,6.65
2019-02-10T00:41:52.998Z,6.63
2019-02-10T00:44:19.098Z,6.66
2019-02-10T00:46:45.182Z,6.70
2019-02-10T00:49:11.017Z,6.66
2019-02-10T00:51:36.982Z,6.66
2019-02-10T00:54:02.980Z,6.68
2019-02-10T00:56:28.861Z,6.64
2019-02-10T00:58:57.486Z,6.64
2019-02-10T01:01:23.300Z,6.55
2019-02-10T01:03:52.251Z,6.51
2019-02-10T01:06:18.324Z,6.45
2019-02-10T01:08:47.258Z,6.49
2019-02-10T01:11:13.393Z,6.49
2019-02-10T01:13:40.783Z,6.50
2019-02-10T01:16:06.597Z,6.49
2019-02-10T01:18:37.215Z,6.49
2019-02-10T01:21:03.122Z,6.42
2019-02-10T01:23:28.932Z,6.38
2019-02-10T01:25:54.787Z,6.39
2019-02-10T01:28:20.632Z,6.37
2019-02-10T01:30:48.030Z,6.41
2019-02-10T01:33:14.100Z,6.43
2019-02-10T01:35:42.728Z,6.50
2019-02-10T01:38:08.567Z,6.41
2019-02-10T01:40:39.065Z,6.36
2019-02-10T01:43:05.866Z,6.38
2019-02-10T01:45:31.996Z,6.40
2019-02-10T01:47:57.802Z,6.32
2019-02-10T01:50:27.246Z,6.33
2019-02-10T01:52:53.072Z,6.33
2019-02-10T01:55:21.819Z,6.32
2019-02-10T01:57:47.647Z,6.31
2019-02-10T02:00:16.621Z,6.25
2019-02-10T02:02:42.435Z,6.25
2019-02-10T02:05:08.371Z,6.22
2019-02-10T02:07:34.455Z,6.19
2019-02-10T02:10:00.320Z,6.24
2019-02-10T02:12:29.108Z,6.27
2019-02-10T02:14:55.145Z,6.24
2019-02-10T02:17:24.065Z,6.28
2019-02-10T02:19:49.907Z,6.31
2019-02-10T02:22:17.082Z,6.37
2019-02-10T02:24:43.197Z,6.40
2019-02-10T02:27:13.782Z,6.41
2019-02-10T02:29:39.632Z,6.36
2019-02-10T02:32:08.467Z,6.29
2019-02-10T02:34:34.575Z,6.30
2019-02-10T02:37:07.602Z,6.32
2019-02-10T02:39:28.252Z,6.29
2019-02-10T02:41:54.139Z,6.23
2019-02-10T02:44:20.269Z,6.23
2019-02-10T02:46:46.133Z,6.01
2019-02-10T02:52:40.772Z,6.51
2019-02-10T02:55:08.020Z,6.54
2019-02-10T02:57:33.833Z,6.72
2019-02-10T02:59:59.674Z,6.61
2019-02-10T03:02:25.514Z,6.82
2019-02-10T03:04:51.403Z,6.93
2019-02-10T03:07:18.254Z,6.98
2019-02-10T03:09:44.537Z,7.06
2019-02-10T03:12:10.678Z,7.14
2019-02-10T03:14:36.513Z,7.11
2019-02-10T03:17:02.372Z,7.12
2019-02-10T03:19:28.473Z,7.03
2019-02-10T03:21:54.321Z,6.99
2019-02-10T03:24:20.434Z,6.91
2019-02-10T03:26:46.263Z,6.84
2019-02-10T03:29:12.077Z,6.68
2019-02-10T03:31:37.922Z,6.52
2019-02-10T03:34:03.737Z,6.37
2019-02-10T03:36:29.870Z,6.31
2019-02-10T03:38:55.704Z,6.25
2019-02-10T03:41:21.550Z,6.24
2019-02-10T03:43:47.500Z,6.23
2019-02-10T03:46:13.616Z,6.23
2019-02-10T03:48:39.734Z,6.25
2019-02-10T03:51:05.876Z,6.28
2019-02-10T03:53:31.977Z,6.27
2019-02-10T03:55:58.150Z,6.28
2019-02-10T03:58:24.200Z,6.32
2019-02-10T04:00:50.032Z,6.35
2019-02-10T04:03:15.877Z,6.37
2019-02-10T04:05:41.696Z,6.45
2019-02-10T04:08:07.653Z,6.42
2019-02-10T04:10:33.473Z,6.40
2019-02-10T04:12:59.315Z,6.37
2019-02-10T04:15:25.262Z,6.37
2019-02-10T04:17:51.076Z,6.41
2019-02-10T04:20:16.969Z,6.47
2019-02-10T04:22:43.224Z,6.46
2019-02-10T04:25:09.062Z,6.46
2019-02-10T04:27:34.889Z,6.55
2019-02-10T04:30:01.264Z,6.54
2019-02-10T04:32:27.360Z,6.65
2019-02-10T04:34:53.496Z,6.68
2019-02-10T04:37:19.345Z,6.69
2019-02-10T04:39:45.240Z,6.74
2019-02-10T04:42:11.087Z,6.66
2019-02-10T04:44:36.935Z,6.59
2019-02-10T04:47:03.070Z,6.58
2019-02-10T04:49:28.881Z,6.61
2019-02-10T04:51:55.032Z,6.73
2019-02-10T04:54:20.879Z,6.87
2019-02-10T04:56:46.698Z,6.96
2019-02-10T04:59:12.569Z,7.01
2019-02-10T05:01:38.448Z,7.03
2019-02-10T05:04:04.298Z,7.05
2019-02-10T05:06:30.121Z,7.08
2019-02-10T05:08:55.973Z,7.22
2019-02-10T05:11:21.794Z,7.38
2019-02-10T05:13:47.605Z,7.56
2019-02-10T05:16:16.472Z,7.55
2019-02-10T05:18:42.323Z,7.55
2019-02-10T05:21:11.034Z,7.52
2019-02-10T05:23:37.130Z,7.44
2019-02-10T05:26:04.216Z,7.45
2019-02-10T05:28:30.310Z,7.36
2019-02-10T05:30:58.324Z,7.34
2019-02-10T05:33:24.134Z,7.34
2019-02-10T05:35:53.423Z,7.03
2019-02-10T05:38:19.257Z,7.36
2019-02-10T05:40:45.367Z,7.37
2019-02-10T05:43:11.235Z,7.40
2019-02-10T05:45:37.128Z,7.45
2019-02-10T05:48:06.283Z,7.42
2019-02-10T05:50:32.151Z,7.25
2019-02-10T05:53:01.014Z,7.24
2019-02-10T05:55:26.967Z,7.22
2019-02-10T05:57:55.807Z,7.25
2019-02-10T06:00:21.661Z,7.27
2019-02-10T06:02:48.926Z,7.28
2019-02-10T06:05:39.803Z,7.24
2019-02-10T06:08:12.998Z,7.27
2019-02-10T06:10:33.654Z,7.27
2019-02-10T06:12:59.485Z,7.25
2019-02-10T06:15:25.315Z,7.16
2019-02-10T06:17:51.174Z,7.14
2019-02-10T06:20:17.029Z,7.11
2019-02-10T06:22:43.026Z,7.08
2019-02-10T06:25:09.098Z,7.13
2019-02-10T06:27:35.201Z,7.14
2019-02-10T06:30:01.258Z,7.16
2019-02-10T06:32:27.073Z,7.19
2019-02-10T06:34:52.987Z,7.21
2019-02-10T06:37:19.078Z,7.22
2019-02-10T06:39:44.902Z,7.24
2019-02-10T06:42:10.826Z,7.26
2019-02-10T06:44:37.028Z,7.28
2019-02-10T06:47:02.827Z,7.25
2019-02-10T06:49:28.701Z,7.27
2019-02-10T06:51:54.522Z,7.25
2019-02-10T06:54:20.655Z,7.24
2019-02-10T06:56:46.474Z,7.27
2019-02-10T06:59:14.216Z,7.26
2019-02-10T07:01:44.466Z,7.26
2019-02-10T07:04:13.329Z,7.29
2019-02-10T07:06:39.424Z,7.32
2019-02-10T07:09:05.484Z,7.41
2019-02-10T07:11:31.362Z,7.47
2019-02-10T07:13:57.762Z,7.43
2019-02-10T07:16:33.221Z,7.35
2019-02-10T07:19:36.868Z,7.38
2019-02-10T07:22:33.452Z,7.38
2019-02-10T07:25:12.221Z,7.32
2019-02-10T07:27:41.448Z,7.33
2019-02-10T07:30:11.117Z,7.31
2019-02-10T07:32:46.108Z,7.31
2019-02-10T07:35:27.438Z,7.34
2019-02-10T07:37:57.159Z,7.46
2019-02-10T07:40:26.814Z,7.46
2019-02-10T07:42:58.990Z,7.48
2019-02-10T07:45:31.744Z,7.46
2019-02-10T07:48:13.103Z,7.46
2019-02-10T07:51:01.037Z,7.50
2019-02-10T07:53:30.673Z,7.54
2019-02-10T07:56:15.059Z,7.57
2019-02-10T07:58:47.412Z,7.70
2019-02-10T08:01:37.270Z,7.79
2019-02-10T08:04:26.791Z,7.91
2019-02-10T08:07:14.913Z,8.00
2019-02-10T08:10:02.521Z,8.05
2019-02-10T08:12:58.237Z,8.08
2019-02-10T08:15:27.881Z,8.17
2019-02-10T08:18:13.298Z,8.27
2019-02-10T08:20:46.209Z,8.35
2019-02-10T08:23:19.112Z,8.45
2019-02-10T08:25:55.229Z,8.51
2019-02-10T08:28:41.564Z,8.59
2019-02-10T08:31:32.718Z,8.73
2019-02-10T08:34:08.606Z,8.91
2019-02-10T08:36:52.921Z,8.93
2019-02-10T08:39:31.655Z,8.89
2019-02-10T08:42:16.773Z,8.90
2019-02-10T08:45:03.401Z,8.86
2019-02-10T08:47:42.304Z,8.89
2019-02-10T08:50:15.197Z,8.91
2019-02-10T08:52:51.969Z,8.98
2019-02-10T08:55:15.367Z,9.08
2019-02-10T08:57:41.500Z,9.14
2019-02-10T09:00:10.105Z,9.30
2019-02-10T09:02:35.938Z,9.43
2019-02-10T09:05:01.808Z,9.71
2019-02-10T09:07:27.930Z,9.71
2019-02-10T09:09:53.776Z,10.02
2019-02-10T09:12:20.289Z,10.20
2019-02-10T09:14:46.133Z,10.32
2019-02-10T09:17:12.270Z,10.42
2019-02-10T09:19:38.214Z,10.90
2019-02-10T09:22:04.051Z,11.47
2019-02-10T09:24:29.866Z,12.23
2019-02-10T09:26:55.997Z,12.84
2019-02-10T09:29:21.813Z,13.40
2019-02-10T09:31:47.941Z,13.58
2019-02-10T09:34:13.768Z,13.35
2019-02-10T09:36:39.881Z,13.62
2019-02-10T09:39:10.825Z,14.35
2019-02-10T09:41:33.692Z,14.68
2019-02-10T09:43:59.745Z,14.78
2019-02-10T09:46:25.610Z,15.12
2019-02-10T09:48:51.695Z,15.45
2019-02-10T09:51:17.513Z,15.17
2019-02-10T09:53:43.348Z,15.41
2019-02-10T09:56:10.675Z,15.51
2019-02-10T09:58:36.702Z,15.95
2019-02-10T10:01:02.641Z,15.66
2019-02-10T10:03:28.513Z,15.66
2019-02-10T10:05:54.338Z,15.75
2019-02-10T10:08:20.140Z,16.15
2019-02-10T10:10:45.977Z,15.76
2019-02-10T10:13:11.795Z,15.58
2019-02-10T10:15:37.916Z,15.05
2019-02-10T10:18:03.766Z,14.19
2019-02-10T10:20:29.613Z,14.64
2019-02-10T10:22:55.707Z,15.00
2019-02-10T10:25:21.554Z,15.48
2019-02-10T10:27:47.663Z,15.45
2019-02-10T10:30:16.522Z,15.35
2019-02-10T10:32:42.647Z,15.37
2019-02-10T10:35:08.891Z,15.10
2019-02-10T10:37:34.746Z,15.01
2019-02-10T10:40:00.590Z,15.00
2019-02-10T10:42:26.428Z,15.03
2019-02-10T10:44:52.223Z,15.37
2019-02-10T10:47:18.079Z,15.20
2019-02-10T10:49:44.020Z,15.47
2019-02-10T10:52:09.881Z,15.47
2019-02-10T10:54:42.615Z,15.14
2019-02-10T10:57:03.401Z,14.56
2019-02-10T10:59:29.239Z,14.05
2019-02-10T11:01:55.058Z,13.92
2019-02-10T11:04:20.913Z,14.19
2019-02-10T11:06:46.759Z,14.88
2019-02-10T11:09:12.629Z,15.55
2019-02-10T11:11:38.599Z,15.57
2019-02-10T11:14:04.702Z,15.36
2019-02-10T11:16:30.552Z,15.55
2019-02-10T11:18:56.694Z,14.93
2019-02-10T11:21:22.590Z,14.99
2019-02-10T11:23:48.394Z,14.99
2019-02-10T11:26:14.481Z,15.25
2019-02-10T11:28:43.335Z,15.13
2019-02-10T11:31:09.415Z,15.24
2019-02-10T11:33:38.256Z,15.11
2019-02-10T11:36:04.352Z,14.63
2019-02-10T11:38:33.594Z,14.18
2019-02-10T11:40:59.660Z,13.83
2019-02-10T11:43:28.773Z,13.85
2019-02-10T11:45:54.867Z,13.73
2019-02-10T11:48:20.970Z,13.61
2019-02-10T11:50:46.822Z,13.55
2019-02-10T11:53:12.675Z,13.49
2019-02-10T11:55:38.654Z,13.36
2019-02-10T11:58:04.475Z,13.35
2019-02-10T12:00:33.361Z,13.27
2019-02-10T12:02:59.543Z,13.16
2019-02-10T12:05:28.497Z,12.99
2019-02-10T12:07:54.392Z,12.73
2019-02-10T12:10:23.020Z,12.54
2019-02-10T12:12:48.863Z,12.38
2019-02-10T12:15:17.464Z,12.41
2019-02-10T12:17:43.368Z,12.43
2019-02-10T12:20:14.609Z,12.39
2019-02-10T12:22:40.963Z,12.33
2019-02-10T12:25:08.488Z,12.08
2019-02-10T12:27:34.334Z,11.87
2019-02-10T12:30:00.858Z,11.62
2019-02-10T12:32:27.171Z,11.21
2019-02-10T12:34:53.050Z,10.90
2019-02-10T12:37:18.854Z,10.76
2019-02-10T12:39:44.946Z,10.69
2019-02-10T12:42:13.904Z,10.74
2019-02-10T12:44:40.003Z,10.65
2019-02-10T12:47:08.680Z,10.57
2019-02-10T12:49:34.637Z,10.25
2019-02-10T12:52:03.669Z,10.03
2019-02-10T12:54:29.476Z,9.83
2019-02-10T12:56:58.367Z,9.67
2019-02-10T12:59:24.175Z,9.54
2019-02-10T13:01:50.313Z,9.41
2019-02-10T13:04:16.412Z,9.26
2019-02-10T13:06:42.350Z,9.07
2019-02-10T13:09:12.106Z,8.91
2019-02-10T13:11:38.029Z,8.77
2019-02-10T13:14:03.987Z,8.70
2019-02-10T13:16:29.778Z,8.66
2019-02-10T13:18:58.696Z,8.59
2019-02-10T13:21:24.539Z,8.51
2019-02-10T13:23:54.994Z,8.47
2019-02-10T13:26:20.820Z,8.41
2019-02-10T13:28:52.825Z,8.37
2019-02-10T13:31:18.894Z,8.30
2019-02-10T13:33:44.749Z,8.32
2019-02-10T13:36:10.683Z,8.28
2019-02-10T13:38:36.597Z,8.33
2019-02-10T13:41:02.750Z,8.37
2019-02-10T13:43:33.482Z,8.26
2019-02-10T13:45:56.276Z,8.43
2019-02-10T13:48:22.144Z,8.44
2019-02-10T13:50:49.466Z,8.42
2019-02-10T13:53:15.336Z,8.39
2019-02-10T13:55:45.855Z,8.38
2019-02-10T13:58:11.664Z,8.35
2019-02-10T14:00:40.303Z,8.35
2019-02-10T14:03:06.079Z,8.38
2019-02-10T14:05:32.943Z,8.38
2019-02-10T14:07:58.754Z,8.37
2019-02-10T14:10:27.532Z,8.39
2019-02-10T14:12:55.251Z,8.44
2019-02-10T14:15:21.119Z,8.42
2019-02-10T14:17:46.941Z,8.42
2019-02-10T14:20:15.355Z,8.40
2019-02-10T14:22:41.735Z,8.38
2019-02-10T14:25:08.032Z,8.34
2019-02-10T14:27:36.641Z,8.33
2019-02-10T14:30:05.492Z,8.30
2019-02-10T14:32:31.343Z,8.23
2019-02-10T14:34:57.441Z,8.22
2019-02-10T14:37:24.349Z,8.23
2019-02-10T14:39:50.482Z,8.21
2019-02-10T14:42:19.067Z,8.20
2019-02-10T14:44:45.174Z,8.17
2019-02-10T14:47:13.858Z,8.18
2019-02-10T14:49:39.695Z,8.20
2019-02-10T14:52:05.848Z,8.21
2019-02-10T14:54:31.711Z,8.23
2019-02-10T14:56:57.499Z,8.19
2019-02-10T14:59:26.562Z,8.22
2019-02-10T15:01:52.672Z,8.22
2019-02-10T15:04:20.365Z,8.22
2019-02-10T15:06:46.191Z,8.23
2019-02-10T15:09:15.080Z,8.26
2019-02-10T15:11:40.911Z,8.27
2019-02-10T15:14:09.674Z,8.24
2019-02-10T15:16:35.496Z,8.22
2019-02-10T15:19:04.636Z,8.18
2019-02-10T15:21:30.745Z,8.18
2019-02-10T15:23:59.557Z,8.13
2019-02-10T15:26:25.354Z,8.11
2019-02-10T15:28:51.443Z,8.09
2019-02-10T15:31:17.285Z,8.06
2019-02-10T15:33:43.385Z,8.06
2019-02-10T15:36:12.550Z,8.06
2019-02-10T15:38:38.378Z,7.77
2019-02-10T15:41:07.496Z,7.44
2019-02-10T15:43:33.297Z,7.17
2019-02-10T15:46:02.368Z,6.91
2019-02-10T15:48:28.269Z,6.74
2019-02-10T15:50:54.328Z,6.64
2019-02-10T15:53:20.174Z,6.56
2019-02-10T15:55:48.866Z,6.46
2019-02-10T15:58:14.985Z,6.35
2019-02-10T16:00:45.719Z,6.24
2019-02-10T16:03:11.610Z,6.16
2019-02-10T16:05:37.510Z,5.99
2019-02-10T16:08:03.420Z,6.14
2019-02-10T16:10:29.244Z,6.20
2019-02-10T16:12:58.063Z,6.26
2019-02-10T16:15:23.903Z,6.27
2019-02-10T16:17:52.845Z,6.33
2019-02-10T16:20:18.836Z,6.39
2019-02-10T16:22:48.216Z,6.44
2019-02-10T16:25:14.343Z,6.51
2019-02-10T16:27:40.172Z,6.52
2019-02-10T16:30:11.972Z,6.60
2019-02-10T16:32:38.087Z,6.64
2019-02-10T16:35:05.394Z,6.69
2019-02-10T16:37:31.246Z,6.46
2019-02-10T16:39:57.075Z,5.64
2019-02-10T16:42:22.920Z,5.57
2019-02-10T16:44:48.762Z,5.45
2019-02-10T16:47:14.591Z,5.33
2019-02-10T16:49:41.165Z,5.18
2019-02-10T16:52:07.247Z,5.15
2019-02-10T16:54:36.203Z,5.02
2019-02-10T16:57:02.038Z,4.98
2019-02-10T16:59:30.759Z,4.96
2019-02-10T17:01:56.573Z,4.98
2019-02-10T17:04:25.139Z,4.92
2019-02-10T17:06:51.283Z,4.92
2019-02-10T17:09:19.969Z,4.95
2019-02-10T17:11:45.823Z,4.97
2019-02-10T17:14:16.121Z,4.95
2019-02-10T17:16:41.941Z,4.96
2019-02-10T17:19:07.808Z,4.94
2019-02-10T17:21:33.634Z,4.97
2019-02-10T17:23:59.492Z,4.83
2019-02-10T17:26:28.094Z,4.73
2019-02-10T17:28:53.914Z,4.64
2019-02-10T17:31:21.148Z,4.60
2019-02-10T17:33:47.245Z,4.47
2019-02-10T17:36:17.987Z,4.41
2019-02-10T17:38:43.873Z,4.46
2019-02-10T17:41:22.622Z,4.54
2019-02-10T17:43:43.635Z,4.56
2019-02-10T17:46:09.722Z,4.58
2019-02-10T17:48:35.857Z,4.58
2019-02-10T17:51:01.717Z,4.60
2019-02-10T17:53:27.540Z,4.63
2019-02-10T17:55:53.701Z,4.60
2019-02-10T17:58:19.552Z,4.64
2019-02-10T18:00:47.305Z,4.65
2019-02-10T18:03:13.416Z,4.70
2019-02-10T18:05:39.542Z,4.69
2019-02-10T18:08:08.430Z,4.73
2019-02-10T18:10:34.351Z,4.73
2019-02-10T18:13:02.953Z,4.73
2019-02-10T18:15:30.704Z,4.78
2019-02-10T18:17:58.742Z,4.83
2019-02-10T18:23:03.169Z,4.80
2019-02-10T18:25:33.750Z,4.88
2019-02-10T18:28:10.824Z,4.88
2019-02-10T18:30:55.586Z,4.87
2019-02-10T18:33:26.304Z,4.91
2019-02-10T18:35:54.342Z,4.94
2019-02-10T18:38:37.529Z,4.94
2019-02-10T18:41:08.072Z,4.98
2019-02-10T18:43:35.820Z,5.02
2019-02-10T18:46:04.662Z,5.12
2019-02-10T18:48:41.681Z,5.17
2019-02-10T18:51:09.725Z,5.13
2019-02-10T18:53:46.376Z,5.14
2019-02-10T18:56:16.900Z,5.17
2019-02-10T18:58:44.632Z,5.15
2019-02-10T19:01:15.694Z,5.19
2019-02-10T19:03:55.377Z,5.23
2019-02-10T19:06:32.035Z,5.28
2019-02-10T19:09:19.339Z,5.22
2019-02-10T19:11:49.914Z,5.20
2019-02-10T19:14:23.493Z,5.17
2019-02-10T19:17:08.028Z,5.18
2019-02-10T19:19:39.009Z,5.15
2019-02-10T19:22:06.808Z,5.08
2019-02-10T19:24:34.821Z,5.04
2019-02-10T19:27:05.827Z,5.04
2019-02-10T19:29:33.824Z,5.09
2019-02-10T19:32:18.162Z,5.03
2019-02-10T19:34:51.742Z,5.02
2019-02-10T19:37:36.459Z,4.96
2019-02-10T19:40:18.775Z,4.70
2019-02-10T19:42:55.573Z,5.04
2019-02-10T19:45:23.298Z,5.03
2019-02-10T19:48:00.091Z,5.03
2019-02-10T19:50:28.081Z,5.05
2019-02-10T19:53:13.790Z,5.07
2019-02-10T19:55:49.522Z,5.13
2019-02-10T20:01:08.784Z,5.12
2019-02-10T20:03:36.702Z,5.10
2019-02-10T20:06:04.563Z,5.11
2019-02-10T20:08:44.833Z,5.12
2019-02-10T20:14:07.747Z,5.02
2019-02-10T20:16:41.748Z,4.88
2019-02-10T20:19:26.071Z,4.73
2019-02-10T20:21:53.814Z,4.57
2019-02-10T20:24:24.272Z,4.40
2019-02-10T20:27:08.703Z,4.31
2019-02-10T20:29:48.919Z,4.20
2019-02-10T20:32:19.454Z,4.09
2019-02-10T20:34:49.980Z,3.97
2019-02-10T20:37:17.744Z,3.90
2019-02-10T20:39:48.724Z,3.81
2019-02-10T20:42:33.023Z,3.74
2019-02-10T20:45:00.775Z,3.64
2019-02-10T20:47:37.282Z,3.58
2019-02-10T20:50:23.042Z,3.55
2019-02-10T20:53:08.120Z,3.50
2019-02-10T20:55:45.108Z,3.46
2019-02-10T20:58:12.846Z,3.43
2019-02-10T21:00:40.573Z,3.41
2019-02-10T21:03:16.997Z,3.35
2019-02-10T21:06:00.098Z,3.31
2019-02-10T21:08:30.937Z,3.26
2019-02-10T21:11:13.910Z,3.20
2019-02-10T21:13:41.652Z,3.20
2019-02-10T21:16:27.641Z,3.18
2019-02-10T21:19:14.146Z,3.21
2019-02-10T21:22:03.568Z,3.20
2019-02-10T21:24:46.523Z,3.32
2019-02-10T21:27:14.289Z,3.45
2019-02-10T21:29:44.776Z,3.22
2019-02-10T21:32:18.366Z,3.72
2019-02-10T21:34:46.397Z,3.79
2019-02-10T21:37:14.117Z,3.86
2019-02-10T21:40:00.692Z,3.90
2019-02-10T21:42:29.250Z,3.96
2019-02-10T21:45:01.111Z,4.04
2019-02-10T21:47:28.866Z,4.03
2019-02-10T21:49:54.702Z,4.06
2019-02-10T21:52:22.061Z,4.08
2019-02-10T21:54:48.147Z,4.09
2019-02-10T21:57:13.958Z,4.10
2019-02-10T21:59:39.815Z,4.12
2019-02-10T22:02:05.870Z,4.09
2019-02-10T22:04:34.747Z,4.15
2019-02-10T22:07:00.857Z,4.19
2019-02-10T22:09:29.714Z,4.18
2019-02-10T22:11:55.824Z,4.18
2019-02-10T22:14:22.844Z,4.20
2019-02-10T22:16:48.685Z,4.20
2019-02-10T22:19:17.423Z,4.23
2019-02-10T22:21:43.294Z,4.25
2019-02-10T22:24:12.203Z,4.25
2019-02-10T22:26:38.045Z,4.28
2019-02-10T22:29:11.307Z,4.27
2019-02-10T22:31:37.550Z,4.34
2019-02-10T22:34:03.353Z,4.36
2019-02-10T22:36:29.181Z,4.36
2019-02-10T22:38:55.055Z,4.38
2019-02-10T22:41:20.869Z,4.41
2019-02-10T22:43:47.053Z,4.39
2019-02-10T22:46:16.204Z,4.36
2019-02-10T22:48:42.023Z,4.34
2019-02-10T22:51:11.183Z,4.35
2019-02-10T22:53:37.013Z,4.38
2019-02-10T22:56:02.881Z,4.34
2019-02-10T22:58:29.024Z,4.34
2019-02-10T23:01:00.120Z,4.09
2019-02-10T23:03:25.930Z,4.32
2019-02-10T23:05:54.919Z,4.30
2019-02-10T23:08:20.743Z,4.27
2019-02-10T23:10:46.944Z,4.29
2019-02-10T23:13:13.086Z,4.32
2019-02-10T23:15:38.901Z,4.30
2019-02-10T23:18:05.113Z,4.03
2019-02-10T23:20:30.927Z,4.26
2019-02-10T23:22:59.833Z,4.27
2019-02-10T23:25:25.935Z,4.23
2019-02-10T23:27:54.811Z,4.22
2019-02-10T23:30:20.762Z,4.22
2019-02-10T23:32:49.365Z,4.19
2019-02-10T23:35:15.183Z,4.13
2019-02-10T23:37:43.792Z,4.09
2019-02-10T23:40:09.744Z,4.08
2019-02-10T23:42:38.981Z,4.08
2019-02-10T23:45:05.780Z,4.02
2019-02-10T23:47:31.624Z,4.02
2019-02-10T23:49:57.426Z,4.01
2019-02-10T23:52:23.539Z,3.99
2019-02-10T23:54:49.553Z,3.96
2019-02-10T23:57:15.411Z,3.90
2019-02-10T23:59:44.090Z,3.89
